Time;durP1;ratioP1;P1;durP2;ratioP2;P2;SDS_P1;SDS_P2;PMS_P1;PMS_P2;Temp;Humidity;BMP_temperature;BMP_pressure;BME280_temperature;BME280_humidity;BME280_pressure;Samples;Min_cycle;Max_cycle;Signal;HPM_P1;HPM_P2
2021/07/22 00:00:06;;;;;;;;;22.50;19.25;;;;;23.10;51.35;101001.56;5038034;28;47430;-87
2021/07/22 00:02:31;;;;;;;;;18.00;17.00;;;;;23.03;51.77;100989.66;5039305;28;45235;-88
2021/07/22 00:04:57;;;;;;;;;21.00;17.50;;;;;22.91;51.53;100974.59;5039457;28;45356;-88
2021/07/22 00:07:23;;;;;;;;;21.50;20.50;;;;;23.02;51.56;100990.63;5039474;28;45259;-87
2021/07/22 00:09:48;;;;;;;;;24.50;19.00;;;;;22.99;51.71;100985.53;5037927;28;48680;-87
2021/07/22 00:12:14;;;;;;;;;22.50;19.25;;;;;22.90;51.86;100983.75;5039545;28;45247;-89
2021/07/22 00:14:40;;;;;;;;;17.25;16.25;;;;;22.94;52.07;100987.84;5039587;28;45599;-88
2021/07/22 00:17:06;;;;;;;;;29.75;21.00;;;;;22.82;52.04;100979.09;5039230;28;45114;-87
2021/07/22 00:19:36;;;;;;;;;24.25;19.75;;;;;22.88;52.30;100991.19;5039453;28;46224;-89
2021/07/22 00:22:03;;;;;;;;;19.50;18.00;;;;;22.71;52.44;100966.63;5039224;28;45135;-88
2021/07/22 00:24:29;;;;;;;;;20.25;17.50;;;;;22.79;52.51;100984.84;5021203;28;45258;-88
2021/07/22 00:26:55;;;;;;;;;20.25;19.00;;;;;22.76;52.51;100993.28;5021037;28;45189;-88
2021/07/22 00:29:21;;;;;;;;;22.75;19.00;;;;;22.58;52.62;100963.44;5039338;28;45447;-87
2021/07/22 00:31:47;;;;;;;;;20.25;16.50;;;;;22.68;52.84;100985.06;5021080;28;45517;-88
2021/07/22 00:34:12;;;;;;;;;22.75;19.25;;;;;22.58;52.58;100980.56;5037714;28;45175;-88
2021/07/22 00:36:38;;;;;;;;;23.25;18.75;;;;;22.54;52.89;100987.28;5038912;28;45239;-88
2021/07/22 00:39:04;;;;;;;;;22.00;17.25;;;;;22.61;52.55;100997.53;5039210;28;46647;-87
2021/07/22 00:41:29;;;;;;;;;21.50;19.00;;;;;22.54;52.94;100991.84;5038649;28;45225;-88
2021/07/22 00:43:55;;;;;;;;;21.50;17.50;;;;;22.47;53.38;100988.91;5020855;28;45290;-88
2021/07/22 00:46:20;;;;;;;;;19.25;17.75;;;;;22.42;53.31;100988.50;5038471;28;45237;-87
2021/07/22 00:48:47;;;;;;;;;25.25;19.50;;;;;22.45;52.79;100998.19;5038835;28;45208;-87
2021/07/22 00:51:12;;;;;;;;;19.75;19.00;;;;;22.37;52.78;100996.22;5038654;28;45614;-89
2021/07/22 00:53:37;;;;;;;;;23.00;19.75;;;;;22.31;53.05;100988.69;5020926;28;45154;-89
2021/07/22 00:56:04;;;;;;;;;20.00;20.00;;;;;22.36;53.22;101010.78;5020665;28;45302;-88
2021/07/22 00:58:29;;;;;;;;;19.50;19.25;;;;;22.33;53.28;101008.38;5038676;28;45530;-88
2021/07/22 01:00:55;;;;;;;;;23.25;20.25;;;;;22.29;53.72;101002.38;5020446;28;45732;-88
2021/07/22 01:03:20;;;;;;;;;20.50;20.50;;;;;22.16;54.06;100986.50;5038745;28;45278;-88
2021/07/22 01:05:45;;;;;;;;;23.00;21.25;;;;;22.06;53.38;100980.25;5038444;28;45183;-87
2021/07/22 01:08:11;;;;;;;;;18.50;17.75;;;;;21.81;53.76;100949.31;5038306;28;45276;-87
2021/07/22 01:10:36;;;;;;;;;21.75;19.00;;;;;21.87;54.01;100965.78;5038367;28;45215;-88
2021/07/22 01:13:02;;;;;;;;;24.00;24.00;;;;;21.79;54.16;100959.41;5020692;28;45119;-89
2021/07/22 01:15:28;;;;;;;;;20.25;19.25;;;;;21.76;54.18;100965.13;5038207;28;45227;-88
2021/07/22 01:17:53;;;;;;;;;21.75;19.50;;;;;21.92;54.24;100997.84;5038316;28;46570;-88
2021/07/22 01:20:20;;;;;;;;;20.25;20.25;;;;;21.58;54.94;100954.22;5038226;28;45230;-89
2021/07/22 01:22:48;;;;;;;;;21.25;18.75;;;;;21.85;54.82;100996.75;5020779;28;45211;-86
2021/07/22 01:25:14;;;;;;;;;19.75;18.25;;;;;21.83;54.52;101004.13;5020480;28;45306;-88
2021/07/22 01:27:41;;;;;;;;;20.25;18.25;;;;;21.80;55.09;100999.88;5038243;28;46154;-87
2021/07/22 01:30:07;;;;;;;;;18.50;18.50;;;;;21.75;54.95;100990.47;5038226;28;45623;-88
2021/07/22 01:32:33;;;;;;;;;24.50;18.50;;;;;21.75;55.12;100996.78;5020624;28;45184;-87
2021/07/22 01:34:59;;;;;;;;;26.00;20.75;;;;;21.59;54.89;100969.47;5038130;28;45223;-88
2021/07/22 01:37:27;;;;;;;;;19.25;18.50;;;;;21.69;54.56;100987.38;5019914;28;48571;-89
2021/07/22 01:39:53;;;;;;;;;24.25;18.50;;;;;21.70;54.56;100996.34;5038096;28;45647;-87
2021/07/22 01:42:18;;;;;;;;;18.25;18.25;;;;;21.59;55.03;100969.47;5038057;28;45224;-88
2021/07/22 01:44:44;;;;;;;;;23.25;19.75;;;;;21.72;55.08;100995.19;5019906;28;45434;-87
2021/07/22 01:47:09;;;;;;;;;18.00;16.75;;;;;21.61;54.84;100981.00;5019736;28;47500;-88
2021/07/22 01:49:35;;;;;;;;;20.75;16.00;;;;;21.61;55.02;100973.72;5019914;28;45294;-87
2021/07/22 01:52:02;;;;;;;;;17.25;15.75;;;;;21.70;55.13;100989.06;5037819;28;45212;-87
2021/07/22 01:54:28;;;;;;;;;24.00;20.00;;;;;21.63;55.03;100976.28;5019899;28;45361;-87
2021/07/22 01:56:53;;;;;;;;;20.00;18.25;;;;;21.56;54.96;100970.59;5037557;28;46088;-87
2021/07/22 01:59:19;;;;;;;;;18.75;18.25;;;;;21.59;54.92;100967.63;5037655;28;45294;-88
2021/07/22 02:01:44;;;;;;;;;20.25;19.00;;;;;21.69;55.09;100984.69;5037243;28;45288;-88
2021/07/22 02:04:12;;;;;;;;;20.00;16.75;;;;;21.65;55.08;100980.56;5019117;28;45498;-87
2021/07/22 02:06:38;;;;;;;;;17.00;16.75;;;;;21.42;55.17;100944.84;5037121;28;46611;-87
2021/07/22 02:09:03;;;;;;;;;21.25;19.00;;;;;21.43;54.80;100941.13;5035729;28;45298;-87
2021/07/22 02:11:29;;;;;;;;;20.25;17.75;;;;;21.36;55.30;100929.19;5019148;28;45231;-87
2021/07/22 02:13:55;;;;;;;;;19.25;16.00;;;;;21.52;55.03;100961.94;5037937;28;45372;-89
2021/07/22 02:16:20;;;;;;;;;18.25;18.25;;;;;21.44;55.36;100952.81;5037337;28;45477;-87
2021/07/22 02:18:46;;;;;;;;;20.67;18.00;;;;;21.30;55.21;100936.03;5018168;28;45619;-87
2021/07/22 02:21:11;;;;;;;;;17.25;14.75;;;;;21.38;55.24;100956.97;5037551;28;45160;-87
2021/07/22 02:23:36;;;;;;;;;20.75;15.75;;;;;21.36;55.75;100964.34;5037730;28;45230;-87
2021/07/22 02:26:06;;;;;;;;;25.75;17.50;;;;;21.40;55.71;100989.28;5019284;28;47225;-87
2021/07/22 02:28:32;;;;;;;;;19.00;18.00;;;;;21.34;55.67;100985.28;5037242;28;45279;-88
2021/07/22 02:30:58;;;;;;;;;18.75;18.25;;;;;21.29;55.78;100976.75;5037376;28;45207;-88
2021/07/22 02:33:23;;;;;;;;;25.25;20.00;;;;;21.16;55.50;100967.09;5037449;28;45171;-87
2021/07/22 02:35:49;;;;;;;;;21.25;17.75;;;;;21.18;55.88;100981.31;5036981;28;46462;-88
2021/07/22 02:38:15;;;;;;;;;20.50;18.50;;;;;21.10;55.64;100972.22;5018891;28;45270;-86
2021/07/22 02:40:40;;;;;;;;;18.75;16.75;;;;;21.08;56.21;100968.78;5018924;28;45218;-89
2021/07/22 02:43:06;;;;;;;;;18.25;17.25;;;;;21.06;56.25;100973.50;5037294;28;45263;-87
2021/07/22 02:45:31;;;;;;;;;20.75;18.50;;;;;21.00;56.35;100972.22;5018885;28;47152;-88
2021/07/22 02:47:56;;;;;;;;;20.75;18.25;;;;;20.97;56.57;100970.66;5036640;28;45236;-89
2021/07/22 02:50:22;;;;;;;;;16.50;14.00;;;;;21.05;56.72;100986.19;5037130;28;45560;-89
2021/07/22 02:52:47;;;;;;;;;17.00;16.00;;;;;20.95;56.58;100980.78;5036992;28;45288;-88
2021/07/22 02:55:13;;;;;;;;;18.25;17.25;;;;;20.92;56.60;100978.34;5036099;28;46520;-87
2021/07/22 02:57:38;;;;;;;;;21.00;19.75;;;;;20.90;56.65;100977.63;5018769;28;45928;-87
2021/07/22 03:00:05;;;;;;;;;21.50;17.25;;;;;20.99;56.27;100992.13;5018857;28;45182;-86
2021/07/22 03:02:30;;;;;;;;;20.50;18.00;;;;;20.97;56.30;100989.56;5037046;28;45128;-88
2021/07/22 03:04:56;;;;;;;;;18.00;17.75;;;;;20.92;56.44;100991.00;5036491;28;45238;-88
2021/07/22 03:07:21;;;;;;;;;18.50;17.75;;;;;20.76;56.35;100965.38;5036667;28;45295;-87
2021/07/22 03:09:46;;;;;;;;;18.25;17.50;;;;;20.70;56.12;100955.16;5018843;28;45260;-87
2021/07/22 03:12:12;;;;;;;;;18.67;18.67;;;;;20.76;56.23;100967.25;5036570;28;45401;-86
2021/07/22 03:14:37;;;;;;;;;20.50;19.00;;;;;20.89;56.54;100994.00;5035347;28;45470;-86
2021/07/22 03:17:02;;;;;;;;;20.25;19.00;;;;;20.66;56.87;100973.47;5036337;28;45182;-88
2021/07/22 03:19:28;;;;;;;;;21.25;17.50;;;;;20.60;56.71;100957.81;5036749;28;45808;-89
2021/07/22 03:21:53;;;;;;;;;20.25;16.25;;;;;20.83;56.53;101004.34;5018378;28;45341;-88
2021/07/22 03:24:19;;;;;;;;;22.75;18.25;;;;;20.82;56.92;100996.41;5036333;28;45631;-88
2021/07/22 03:26:46;;;;;;;;;22.75;17.25;;;;;20.65;56.99;100974.47;5017847;28;45231;-87
2021/07/22 03:29:12;;;;;;;;;17.00;17.00;;;;;20.79;56.42;100997.56;5036441;28;45191;-87
2021/07/22 03:31:37;;;;;;;;;26.00;21.00;;;;;20.80;56.37;100995.69;5018477;28;45171;-87
2021/07/22 03:34:04;;;;;;;;;20.00;18.25;;;;;20.75;56.80;100988.00;5018086;28;48551;-87
2021/07/22 03:36:31;;;;;;;;;23.25;19.75;;;;;20.74;56.54;100989.00;5001955;28;46645;-87
2021/07/22 03:38:56;;;;;;;;;21.00;19.50;;;;;20.55;57.07;100953.81;5036458;28;45247;-87
2021/07/22 03:41:24;;;;;;;;;20.00;17.33;;;;;20.46;56.46;100942.00;5036169;28;45176;-88
2021/07/22 03:43:50;;;;;;;;;16.25;16.00;;;;;20.75;57.07;100989.84;5036199;28;45634;-87
2021/07/22 03:46:15;;;;;;;;;15.67;15.67;;;;;20.65;56.90;100976.28;5017870;28;45136;-87
2021/07/22 03:48:40;;;;;;;;;18.33;17.67;;;;;20.62;57.18;100977.44;5036270;28;45220;-87
2021/07/22 03:51:11;;;;;;;;;21.67;18.00;;;;;20.71;56.94;100991.13;5036260;28;45144;-87
2021/07/22 03:53:37;;;;;;;;;19.25;17.75;;;;;20.64;57.14;100974.59;5036029;28;46156;-87
2021/07/22 03:56:03;;;;;;;;;15.50;14.50;;;;;20.69;57.34;100983.16;5035832;28;45269;-87
2021/07/22 03:58:29;;;;;;;;;17.75;14.50;;;;;20.67;57.48;100990.56;5018471;28;45203;-88
2021/07/22 04:00:57;;;;;;;;;20.00;19.25;;;;;20.65;57.12;100989.78;5017663;28;45497;-86
2021/07/22 04:03:23;;;;;;;;;16.75;15.75;;;;;20.61;57.46;100991.09;5035713;28;45499;-89
2021/07/22 04:05:49;;;;;;;;;18.00;17.25;;;;;20.47;57.27;100973.44;5035658;28;45976;-86
2021/07/22 04:08:14;;;;;;;;;20.25;18.25;;;;;20.40;57.52;100966.88;5035961;28;45311;-87
2021/07/22 04:10:39;;;;;;;;;19.00;18.00;;;;;20.27;57.44;100957.19;5035990;28;45273;-89
2021/07/22 04:13:04;;;;;;;;;19.25;18.50;;;;;20.41;57.87;100980.25;5017881;28;46921;-89
2021/07/22 04:15:30;;;;;;;;;18.33;16.00;;;;;20.36;58.03;100977.09;5035767;28;45164;-88
2021/07/22 04:17:56;;;;;;;;;19.00;17.25;;;;;20.37;57.87;100992.31;5036039;28;45176;-87
2021/07/22 04:20:23;;;;;;;;;18.75;15.75;;;;;20.28;57.87;100983.19;5037276;28;45242;-88
2021/07/22 04:22:49;;;;;;;;;19.50;19.50;;;;;20.10;58.23;100961.41;5018916;28;48039;-87
2021/07/22 04:25:15;;;;;;;;;18.00;17.25;;;;;20.29;58.17;100990.28;5036773;28;45714;-88
2021/07/22 04:27:41;;;;;;;;;19.00;17.50;;;;;20.29;58.43;100997.53;5038537;28;45175;-87
2021/07/22 04:30:07;;;;;;;;;22.50;20.25;;;;;20.13;58.01;100977.31;5039152;28;45384;-88
2021/07/22 04:32:32;;;;;;;;;21.75;17.00;;;;;20.20;58.43;100991.13;5039305;28;46145;-87
2021/07/22 04:34:58;;;;;;;;;20.50;17.75;;;;;19.94;58.60;100959.22;5039042;28;45192;-88
2021/07/22 04:37:23;;;;;;;;;23.67;18.33;;;;;20.23;58.58;101008.91;5039167;28;45216;-88
2021/07/22 04:39:48;;;;;;;;;19.25;18.25;;;;;20.21;58.84;101005.47;5039095;28;45218;-84
2021/07/22 04:42:14;;;;;;;;;23.67;19.33;;;;;20.20;58.86;101009.19;5038946;28;46265;-87
2021/07/22 04:44:39;;;;;;;;;21.00;20.33;;;;;20.20;59.02;101012.72;5020317;28;45307;-79
2021/07/22 04:47:05;;;;;;;;;20.00;17.50;;;;;20.23;58.85;101012.44;5038153;28;45221;-78
2021/07/22 04:49:30;;;;;;;;;20.00;17.50;;;;;20.32;58.74;101021.56;5038302;28;45263;-78
2021/07/22 04:51:58;;;;;;;;;20.00;16.75;;;;;20.40;58.67;101018.19;5037951;28;46327;-82
2021/07/22 04:54:24;;;;;;;;;19.75;16.50;;;;;20.47;58.94;101022.91;5037882;28;45168;-79
2021/07/22 04:56:50;;;;;;;;;24.50;17.50;;;;;20.56;58.70;101014.97;5037770;28;45255;-80
2021/07/22 04:59:15;;;;;;;;;20.50;20.25;;;;;20.63;58.17;101018.81;5038470;28;45148;-79
2021/07/22 05:01:40;;;;;;;;;19.25;17.50;;;;;20.70;58.64;101025.41;5037800;28;45196;-81
2021/07/22 05:04:07;;;;;;;;;20.25;18.00;;;;;20.79;58.34;101026.41;5020339;28;45156;-81
2021/07/22 05:06:33;;;;;;;;;20.25;16.75;;;;;20.84;57.93;101024.16;5037922;28;45209;-80
2021/07/22 05:09:02;;;;;;;;;21.50;19.75;;;;;20.91;57.81;101028.00;5038421;28;45241;-81
2021/07/22 05:11:27;;;;;;;;;17.50;17.25;;;;;20.96;58.05;101035.66;5038185;28;46106;-91
2021/07/22 05:13:53;;;;;;;;;20.33;17.67;;;;;20.98;57.53;101031.84;5053659;28;44612;-91
2021/07/22 05:16:22;;;;;;;;;20.75;18.00;;;;;20.98;58.02;101031.00;5028398;28;45248;-88
2021/07/22 05:18:50;;;;;;;;;21.75;19.50;;;;;21.01;57.78;101030.72;5020587;28;45152;-88
2021/07/22 05:21:16;;;;;;;;;19.25;17.25;;;;;20.85;58.19;101007.78;5020661;28;47682;-87
2021/07/22 05:23:54;;;;;;;;;17.75;16.50;;;;;20.94;58.05;101018.75;5020485;28;45639;-87
2021/07/22 05:26:19;;;;;;;;;21.25;19.25;;;;;20.95;58.21;101021.31;5020780;28;45154;-87
2021/07/22 05:28:44;;;;;;;;;21.75;18.50;;;;;20.88;57.76;101003.97;5020431;28;45223;-87
2021/07/22 05:31:11;;;;;;;;;24.00;19.75;;;;;21.05;57.79;101034.84;5038258;28;46605;-88
2021/07/22 05:33:40;;;;;;;;;22.00;20.50;;;;;21.08;58.33;101033.69;5020283;28;45663;-87
2021/07/22 05:36:09;;;;;;;;;23.50;19.50;;;;;21.09;57.73;101028.16;5038275;28;45216;-89
2021/07/22 05:38:37;;;;;;;;;24.25;20.75;;;;;21.08;57.55;101020.16;5019256;28;45283;-88
2021/07/22 05:41:09;;;;;;;;;24.00;20.25;;;;;20.99;58.31;101000.25;5038066;28;45467;-87
2021/07/22 05:43:35;;;;;;;;;22.75;18.25;;;;;21.19;58.10;101037.13;5020490;28;45517;-88
2021/07/22 05:46:01;;;;;;;;;21.75;19.75;;;;;21.18;58.17;101026.44;5037044;28;45374;-86
2021/07/22 05:48:26;;;;;;;;;22.50;18.75;;;;;21.23;57.91;101026.00;5038401;28;45116;-88
2021/07/22 05:50:53;;;;;;;;;22.00;19.00;;;;;21.28;57.60;101031.84;5019756;28;48042;-87
2021/07/22 05:53:19;;;;;;;;;19.25;18.00;;;;;21.33;57.42;101034.97;5038021;28;45142;-87
2021/07/22 05:55:48;;;;;;;;;23.00;21.25;;;;;21.23;57.81;101013.34;5038030;28;45295;-88
2021/07/22 05:58:13;;;;;;;;;21.50;18.25;;;;;21.22;57.41;101006.25;5037707;28;45245;-87
2021/07/22 06:00:39;;;;;;;;;24.25;21.00;;;;;21.45;57.87;101028.41;5037602;28;45187;-88
2021/07/22 06:03:05;;;;;;;;;22.00;20.50;;;;;21.51;57.84;101035.09;5038118;28;45148;-87
2021/07/22 06:05:31;;;;;;;;;23.50;20.50;;;;;21.43;57.91;101010.63;5037902;28;45276;-87
2021/07/22 06:07:57;;;;;;;;;22.00;20.00;;;;;21.61;57.55;101035.97;5038080;28;45255;-89
2021/07/22 06:10:23;;;;;;;;;21.00;19.00;;;;;21.67;57.11;101035.38;5037681;28;46427;-87
2021/07/22 06:12:49;;;;;;;;;19.75;19.75;;;;;21.68;57.11;101028.97;5037811;28;45246;-88
2021/07/22 06:15:14;;;;;;;;;24.75;21.75;;;;;21.83;57.55;101033.91;5019991;28;45336;-87
2021/07/22 06:18:03;;;;;;;;;22.75;20.00;;;;;21.81;57.12;101015.13;5003114;28;45386;-88
2021/07/22 06:20:35;;;;;;;;;19.00;17.75;;;;;21.90;57.02;101016.06;5019347;28;47517;-88
2021/07/22 06:23:01;;;;;;;;;21.75;19.25;;;;;22.11;57.06;101015.88;5037215;28;45689;-88
2021/07/22 06:25:36;;;;;;;;;22.25;19.25;;;;;22.21;56.52;101003.13;5037306;28;45203;-88
2021/07/22 06:28:06;;;;;;;;;25.00;22.25;;;;;22.51;56.54;101022.81;5019483;28;45215;-87
2021/07/22 06:30:32;;;;;;;;;22.25;20.50;;;;;22.53;55.55;100996.44;5018974;28;46061;-88
2021/07/22 06:32:57;;;;;;;;;24.25;21.00;;;;;22.66;55.46;100992.47;5036422;28;45135;-87
2021/07/22 06:35:23;;;;;;;;;22.50;18.50;;;;;22.89;55.05;101012.72;5037191;28;45285;-89
2021/07/22 06:37:51;;;;;;;;;19.25;19.00;;;;;23.20;54.89;101028.66;5037197;28;45123;-88
2021/07/22 06:40:19;;;;;;;;;20.50;18.25;;;;;23.38;54.40;101031.31;5036613;28;47152;-88
2021/07/22 06:42:44;;;;;;;;;22.00;21.50;;;;;23.43;54.36;101011.88;5002705;28;45172;-87
2021/07/22 06:45:10;;;;;;;;;19.00;18.75;;;;;23.44;53.80;100984.56;5037220;28;45168;-88
2021/07/22 06:47:39;;;;;;;;;23.50;19.75;;;;;23.89;53.38;101026.09;5037115;28;45254;-88
2021/07/22 06:50:09;;;;;;;;;23.00;18.50;;;;;24.05;52.54;101028.06;5018768;28;48013;-90
2021/07/22 06:52:37;;;;;;;;;21.00;15.50;;;;;24.15;52.86;101025.22;5036958;28;45662;-89
2021/07/22 06:55:24;;;;;;;;;22.50;19.00;;;;;24.33;52.41;101025.16;5036972;28;45211;-88
2021/07/22 06:57:50;;;;;;;;;26.50;20.00;;;;;24.46;51.79;101021.97;5036025;28;45352;-88
2021/07/22 07:00:19;;;;;;;;;23.25;20.25;;;;;24.71;51.31;101030.22;5037008;28;45471;-90
2021/07/22 07:02:45;;;;;;;;;20.75;18.50;;;;;24.76;50.82;101016.97;5036991;28;45148;-89
2021/07/22 07:05:19;;;;;;;;;20.50;17.00;;;;;24.97;50.94;101036.38;5036992;28;45177;-88
2021/07/22 07:07:44;;;;;;;;;22.00;17.75;;;;;25.10;50.47;101027.72;5037055;28;45256;-88
2021/07/22 07:10:10;;;;;;;;;18.00;17.00;;;;;25.26;49.59;101018.72;5036738;28;46289;-89
2021/07/22 07:12:35;;;;;;;;;23.00;20.50;;;;;25.49;49.31;101032.50;5036563;28;45219;-88
2021/07/22 07:15:01;;;;;;;;;20.00;16.75;;;;;25.51;48.63;101005.16;5018855;28;45251;-88
2021/07/22 07:17:29;;;;;;;;;17.50;17.00;;;;;25.80;48.16;101028.22;5019596;28;45189;-90
2021/07/22 07:19:56;;;;;;;;;22.00;20.00;;;;;25.98;47.29;101026.16;5037121;28;45588;-88
2021/07/22 07:22:21;;;;;;;;;19.75;17.00;;;;;26.12;47.04;101027.34;5036989;28;45190;-87
2021/07/22 07:24:53;;;;;;;;;21.75;18.75;;;;;26.23;46.88;101027.97;5036536;28;45184;-88
2021/07/22 07:27:19;;;;;;;;;21.50;19.00;;;;;26.46;46.48;101033.47;5018871;28;45380;-89
2021/07/22 07:29:44;;;;;;;;;23.00;18.75;;;;;26.52;45.57;101025.44;5018294;28;46058;-89
2021/07/22 07:32:10;;;;;;;;;24.75;19.50;;;;;26.62;45.36;101011.59;5036508;28;45264;-89
2021/07/22 07:34:37;;;;;;;;;16.25;16.25;;;;;26.80;45.07;101024.13;5036381;28;45163;-88
2021/07/22 07:37:02;;;;;;;;;24.00;21.50;;;;;26.96;44.16;101026.72;5036123;28;45389;-90
2021/07/22 07:39:28;;;;;;;;;17.75;16.25;;;;;27.21;43.50;101037.47;5036265;28;46553;-89
2021/07/22 07:41:54;;;;;;;;;23.00;17.00;;;;;27.37;42.82;101033.78;5036074;28;45234;-89
2021/07/22 07:44:19;;;;;;;;;20.25;16.50;;;;;27.51;43.12;101032.97;5036630;28;45162;-88
2021/07/22 07:46:44;;;;;;;;;17.75;16.50;;;;;27.66;43.02;101029.41;5036203;28;45614;-89
2021/07/22 07:49:10;;;;;;;;;23.75;16.25;;;;;27.81;42.61;101021.25;5036176;28;45656;-88
2021/07/22 07:51:35;;;;;;;;;18.75;15.75;;;;;28.00;42.64;101030.81;5036088;28;45300;-88
2021/07/22 07:54:03;;;;;;;;;19.00;19.00;;;;;28.01;41.45;101005.19;5036169;28;45056;-88
2021/07/22 07:56:28;;;;;;;;;16.00;15.00;;;;;28.23;40.49;101022.47;5044766;22;45175;-89
2021/07/22 07:58:54;;;;;;;;;18.75;14.75;;;;;28.38;40.43;101036.16;5036005;28;46303;-89
2021/07/22 08:01:21;;;;;;;;;19.00;19.00;;;;;28.39;40.16;101024.19;5037054;28;45068;-88
2021/07/22 08:03:46;;;;;;;;;20.25;17.25;;;;;28.50;40.42;101025.56;5021694;28;45121;-88
2021/07/22 08:06:12;;;;;;;;;17.00;17.00;;;;;28.67;40.81;101031.69;5039568;28;45196;-89
2021/07/22 08:08:37;;;;;;;;;16.25;15.00;;;;;28.86;40.03;101028.34;5021581;28;47205;-88
2021/07/22 08:11:02;;;;;;;;;17.25;16.25;;;;;29.02;40.09;101024.47;5039428;28;45206;-88
2021/07/22 08:13:28;;;;;;;;;16.50;16.25;;;;;29.21;39.29;101022.97;5039442;28;45247;-88
2021/07/22 08:15:54;;;;;;;;;24.75;17.50;;;;;29.46;38.56;101029.94;5039615;28;45267;-88
2021/07/22 08:18:19;;;;;;;;;17.75;16.75;;;;;29.49;37.71;101022.19;5021340;28;47241;-89
2021/07/22 08:20:44;;;;;;;;;16.50;15.50;;;;;29.57;38.23;101034.88;5039073;28;45267;-89
2021/07/22 08:23:10;;;;;;;;;17.75;17.75;;;;;29.58;37.05;101025.63;5021496;28;45359;-89
2021/07/22 08:25:38;;;;;;;;;19.25;17.25;;;;;29.68;37.36;101028.84;5039346;28;45234;-90
2021/07/22 08:28:05;;;;;;;;;22.00;18.00;;;;;29.89;37.30;101032.63;5039416;28;45264;-89
2021/07/22 08:30:30;;;;;;;;;17.00;17.00;;;;;29.96;37.36;101017.06;5039225;28;45638;-88
2021/07/22 08:32:56;;;;;;;;;14.00;14.00;;;;;30.11;36.73;101022.41;5039241;28;45187;-88
2021/07/22 08:35:21;;;;;;;;;17.75;16.00;;;;;30.37;36.09;101024.44;5039317;28;45236;-89
2021/07/22 08:37:47;;;;;;;;;16.25;16.25;;;;;30.50;35.74;101022.81;5038954;28;45277;-88
2021/07/22 08:40:13;;;;;;;;;15.50;14.25;;;;;30.67;35.48;101013.19;5039049;28;45293;-88
2021/07/22 08:42:45;;;;;;;;;16.25;14.00;;;;;30.91;34.72;101019.13;5043587;28;45223;-91
2021/07/22 08:45:23;;;;;;;;;17.50;16.50;;;;;31.14;33.69;101025.13;5039429;28;45233;-89
2021/07/22 08:47:54;;;;;;;;;21.00;16.25;;;;;31.19;33.74;101034.63;5037536;28;48442;-89
2021/07/22 08:50:19;;;;;;;;;13.50;13.50;;;;;31.02;33.38;101009.47;5038853;28;45180;-89
2021/07/22 08:52:47;;;;;;;;;16.25;14.50;;;;;31.21;33.81;101032.50;5039398;28;45141;-89
2021/07/22 08:55:12;;;;;;;;;14.00;13.25;;;;;31.35;32.82;101025.13;5038788;28;45339;-89
2021/07/22 08:57:40;;;;;;;;;13.75;13.50;;;;;31.58;33.04;101031.06;5038564;28;45583;-88
2021/07/22 09:00:07;;;;;;;;;14.75;14.75;;;;;31.75;31.98;101030.63;5020555;28;45172;-88
2021/07/22 09:02:32;;;;;;;;;15.00;14.00;;;;;31.75;32.37;101009.47;5037191;28;45175;-89
2021/07/22 09:05:00;;;;;;;;;17.25;15.75;;;;;32.07;31.45;101036.25;5020636;28;45184;-88
2021/07/22 09:07:32;;;;;;;;;14.75;14.00;;;;;32.10;31.42;101022.09;5037160;28;47393;-89
2021/07/22 09:10:03;;;;;;;;;18.00;16.00;;;;;32.26;31.46;101043.63;5021070;28;45172;-89
2021/07/22 09:12:42;;;;;;;;;19.25;16.25;;;;;32.38;31.19;101038.31;5040316;28;45266;-88
2021/07/22 09:15:10;;;;;;;;;13.50;13.00;;;;;32.44;30.80;101034.66;5040228;28;45101;-88
2021/07/22 09:17:36;;;;;;;;;15.50;15.25;;;;;32.54;30.86;101039.72;5022174;28;47121;-89
2021/07/22 09:20:02;;;;;;;;;14.50;14.50;;;;;32.59;30.00;101041.81;5040355;28;45147;-88
2021/07/22 09:22:36;;;;;;;;;19.00;17.25;;;;;32.58;30.75;101040.97;5022617;28;45275;-89
2021/07/22 09:25:09;;;;;;;;;14.50;14.50;;;;;32.65;30.99;101047.28;5038945;28;45366;-89
2021/07/22 09:27:39;;;;;;;;;16.00;14.75;;;;;32.88;29.50;101037.66;5022276;28;46466;-89
2021/07/22 09:30:09;;;;;;;;;18.00;15.75;;;;;32.99;29.98;101038.84;5041105;28;45212;-88
2021/07/22 09:32:50;;;;;;;;;12.75;12.75;;;;;33.15;29.59;101026.44;5038829;28;45122;-89
2021/07/22 09:35:36;;;;;;;;;15.00;14.75;;;;;33.50;29.79;101037.00;5038259;28;45238;-89
2021/07/22 09:38:10;;;;;;;;;14.75;14.75;;;;;33.66;28.97;101014.38;5036943;28;46229;-88
2021/07/22 09:40:36;;;;;;;;;15.25;14.25;;;;;33.66;28.62;101025.41;5019953;28;45318;-89
2021/07/22 09:43:03;;;;;;;;;16.25;16.25;;;;;33.65;29.31;101023.72;5020365;28;45191;-91
2021/07/22 09:45:31;;;;;;;;;14.25;13.25;;;;;33.69;29.09;101022.19;5038519;28;45301;-89
2021/07/22 09:48:06;;;;;;;;;15.25;14.25;;;;;33.86;29.17;101022.47;5037825;28;46760;-90
2021/07/22 09:50:39;;;;;;;;;14.00;14.00;;;;;34.08;28.94;101024.78;5037882;28;45219;-89
2021/07/22 09:53:07;;;;;;;;;14.50;14.50;;;;;34.33;28.88;101032.97;5038436;28;45135;-89
2021/07/22 09:55:34;;;;;;;;;15.75;13.00;;;;;34.58;28.17;101016.28;5037917;28;45272;-89
2021/07/22 09:58:10;;;;;;;;;15.00;12.75;;;;;34.73;28.74;101007.59;5037988;28;45448;-91
2021/07/22 10:00:43;;;;;;;;;16.75;14.25;;;;;34.91;27.60;101008.63;5037698;28;45496;-88
2021/07/22 10:03:13;;;;;;;;;14.50;12.00;;;;;35.06;27.68;101010.94;5037906;28;45347;-89
2021/07/22 10:05:40;;;;;;;;;15.25;14.00;;;;;35.24;27.65;101005.31;5037847;28;45407;-89
2021/07/22 10:08:07;;;;;;;;;15.25;13.50;;;;;35.38;27.00;101014.25;5037627;28;45304;-90
2021/07/22 10:10:34;;;;;;;;;12.50;11.75;;;;;35.30;27.15;100991.66;5037721;28;45580;-88
2021/07/22 10:13:01;;;;;;;;;16.50;13.25;;;;;35.36;26.91;101005.38;5038023;28;45156;-89
2021/07/22 10:15:36;;;;;;;;;15.00;13.50;;;;;35.37;27.02;101011.72;5037723;28;45296;-89
2021/07/22 10:18:05;;;;;;;;;17.00;15.75;;;;;35.27;26.93;101004.00;5019513;28;47650;-89
2021/07/22 10:20:32;;;;;;;;;18.25;16.75;;;;;35.13;26.65;100997.84;5019671;28;45548;-88
2021/07/22 10:22:58;;;;;;;;;16.25;13.50;;;;;35.00;27.16;101000.84;5037935;28;45261;-89
2021/07/22 10:25:23;;;;;;;;;12.75;12.00;;;;;34.94;27.34;100999.03;5037139;28;45224;-88
2021/07/22 10:27:49;;;;;;;;;16.25;16.25;;;;;34.88;27.17;100982.31;5037333;28;46438;-88
2021/07/22 10:30:17;;;;;;;;;12.50;11.00;;;;;34.95;27.13;100997.94;5037485;28;45370;-88
2021/07/22 10:32:49;;;;;;;;;11.75;11.75;;;;;34.90;27.49;100980.19;5019552;28;45157;-88
2021/07/22 10:35:34;;;;;;;;;16.00;14.25;;;;;35.07;27.24;100976.69;5037625;28;45167;-89
2021/07/22 10:38:11;;;;;;;;;13.50;12.75;;;;;35.21;26.81;100977.31;5037134;28;45505;-90
2021/07/22 10:40:46;;;;;;;;;12.50;12.50;;;;;35.35;27.14;100983.50;5019188;28;45088;-90
2021/07/22 10:43:29;;;;;;;;;14.00;12.25;;;;;35.58;27.38;100974.34;5019411;28;45163;-88
2021/07/22 10:46:02;;;;;;;;;14.75;13.50;;;;;35.76;26.73;100965.09;5037255;28;45229;-90
2021/07/22 10:48:29;;;;;;;;;14.25;13.00;;;;;36.14;26.74;100979.44;5036995;28;46432;-90
2021/07/22 10:50:54;;;;;;;;;12.25;12.25;;;;;36.36;26.38;100974.94;5037359;28;45226;-89
2021/07/22 10:53:49;;;;;;;;;14.25;14.25;;;;;36.50;25.84;100960.78;5018802;28;45170;-90
2021/07/22 10:56:24;;;;;;;;;15.25;13.50;;;;;36.73;25.30;100979.22;5036671;28;45342;-90
2021/07/22 10:58:56;;;;;;;;;16.00;14.25;;;;;36.67;24.78;100970.00;5036921;28;45313;-89
2021/07/22 11:01:43;;;;;;;;;12.50;12.50;;;;;36.54;25.33;100964.75;5036723;28;45241;-88
2021/07/22 11:04:27;;;;;;;;;13.00;13.00;;;;;36.55;25.62;100961.72;5037304;28;45230;-89
2021/07/22 11:06:59;;;;;;;;;14.50;13.00;;;;;36.75;25.39;100957.66;5036782;28;45257;-91
2021/07/22 11:09:58;;;;;;;;;11.50;10.75;;;;;37.03;25.52;100953.16;5037233;28;45669;-88